Pagrindinis puslapis
METAR-TAF:

METAR-TAF

Oro uostai :

Tajuanas, Kinija

platuma: 37-47N, ilguma: 112-33E, Aukštis: 779 m

Dabartinis oras

Ataskaita buvo paskelbta 46 minutes, ne 15:30 UTC
Vėjas 10 kt iš Rytų
Temperatūra 12°C
Drėgmė 47%
Slėgis 1019 hPa
Matomumas: 5000 m
migla

METAR: ZBYN 311530Z 08005MPS 5000 HZ NSC 12/01 Q1019 NOSIG

Laikas: 00:16 (16:16 UTC)

Prognozė

Ataskaita buvo paskelbta 7 valandos ir 9 minutes, ne 09:07 UTC
Prognozė galioja nuo 31 metu 12 UTC su 01 metu 12 UTC
Vėjas 12 kt iš Rytų/Šiaurės Rytų su gūsio iki 25 kt
Matomumas: 5000 m
migla
Tapsmas
nuo 31 metu 19 UTC su 31 metu 20 UTC
lietus

TAF: ZBYN 310907Z 3112/0112 07006G13MPS 5000 HZ NSC TX16/3112Z TN02/3122Z BECMG 3119/3120 -RA

Orai ataskaitas ir orų prognozės (METAR, TAF).

turimą stotys yra geltonos ir raudonos taškus žemėlapyje.

Perkelti pele per norėdami pamatyti stoties vardą.

Tada spustelėkite, norėdami matyti oro stebėjimo ir prognozės.

Norėdami pakeisti žemėlapį: spustelėkite ant žalios mygtukų su juodo kryžiaus žemyn,; žalią mygtuką su brūkšneliu, jei norite nutolinti; arba žalių rodyklių gretimoms žemėlapius.


METAR-TAF: